Marchicora — V2OQ7 — position and weather

sailwx.info

Track history (hours):
 
Tides and Currents Weather Stations Pressure Air Temp Water Temp Dewpoint Dewpoint Depression Visibility Wind Speed Wind Dir Waves Ship Positions

Marchicora

Last reported at 2014-Jul-22 21:33 UTC. Time now 2014-Jul-23 05:52 UTC.
Position N 49°12' W 004°58'.

Length 153 m; draft 10 m.

Type: Cargo ship. MMSI: 304653000.

Date/timePositionNaut miles runAvg speedWind from/ knotsBaromVisibWave heightAir tempDewpointWater temp
2014-Jul-22 21:33N 49°12' W 004°58'1312.9
2014-Jul-22 20:32N 49°19' W 004°40'16013.0
2014-Jul-22 08:09N 50°22' W 000°51'912.8
2014-Jul-22 07:29N 50°24' W 000°38'1112.1
2014-Jul-22 06:33N 50°27' W 000°21'1211.5
2014-Jul-22 05:33N 50°31' W 000°04'1111.2
2014-Jul-22 04:33N 50°34' E 000°13'1111.4
2014-Jul-22 03:33N 50°37' E 000°30'1212.3
2014-Jul-22 02:33N 50°43' E 000°47'1313.4
2014-Jul-22 01:33N 50°51' E 001°04'1313.5
2014-Jul-22 00:33N 50°60' E 001°20'1312.8
2014-Jul-21 23:34N 51°08' E 001°36'1211.6
2014-Jul-21 22:33N 51°17' E 001°48'1111.4
2014-Jul-21 21:34N 51°27' E 001°57'1211.5
2014-Jul-21 20:33N 51°35' E 002°09'311.4
2014-Jul-21 20:18N 51°38' E 002°12'911.7
2014-Jul-21 19:33N 51°44' E 002°21'1412.4
2014-Jul-21 18:27N 51°55' E 002°36'40212.2
2014-Jul-20 09:29N 57°34' E 008°49'1212.7
2014-Jul-20 08:33N 57°40' E 009°08'1212.2
2014-Jul-20 07:33N 57°47' E 009°27'1212.0
2014-Jul-20 06:31N 57°51' E 009°49'1212.4
2014-Jul-20 05:33N 57°51' E 010°11'1312.8
2014-Jul-20 04:33N 57°51' E 010°35'1312.7
2014-Jul-20 03:33N 57°44' E 010°55'1313.0
2014-Jul-20 02:33N 57°35' E 011°13'1211.9
2014-Jul-20 01:33N 57°27' E 011°28'1312.3
2014-Jul-20 00:32N 57°15' E 011°36'1311.7
2014-Jul-19 23:25N 57°02' E 011°44'1212.0
2014-Jul-19 22:25N 56°51' E 011°51'1010.7
2014-Jul-19 21:31N 56°41' E 011°50'1111.7
2014-Jul-19 20:33N 56°31' E 011°41'1211.9
2014-Jul-19 19:33N 56°21' E 011°29'1212.2
2014-Jul-19 18:33N 56°11' E 011°17'1411.9
2014-Jul-19 17:22N 55°59' E 011°03'4611.0
2014-Jul-19 13:10N 55°13' E 011°06'711.6
2014-Jul-19 12:32N 55°07' E 010°59'1312.0
2014-Jul-19 11:30N 54°55' E 010°52'1213.0
2014-Jul-19 10:33N 54°43' E 010°47'1111.4
2014-Jul-19 09:33N 54°36' E 011°02'1312.6
2014-Jul-19 08:33N 54°33' E 011°23'1212.3
2014-Jul-19 07:33N 54°27' E 011°42'1212.1
2014-Jul-19 06:33N 54°26' E 012°02'1110.5
2014-Jul-19 05:33N 54°34' E 012°15'1111.5
2014-Jul-19 04:33N 54°42' E 012°29'1211.7
2014-Jul-19 03:33N 54°48' E 012°46'1212.5
2014-Jul-19 02:33N 54°52' E 013°07'1312.7
2014-Jul-19 01:33N 54°56' E 013°27'1312.8
2014-Jul-19 00:33N 55°01' E 013°48'1212.5
2014-Jul-18 23:33N 55°06' E 014°08'1312.9
2014-Jul-18 22:33N 55°16' E 014°22'1312.7
2014-Jul-18 21:33N 55°26' E 014°36'1212.4
2014-Jul-18 20:33N 55°32' E 014°55'1312.7
2014-Jul-18 19:33N 55°39' E 015°15'1312.7
2014-Jul-18 18:33N 55°45' E 015°34'1312.7
2014-Jul-18 17:33N 55°52' E 015°53'1312.7
2014-Jul-18 16:33N 55°58' E 016°13'1312.6
2014-Jul-18 15:33N 56°05' E 016°32'1612.5
2014-Jul-18 14:17N 56°14' E 016°56'2212.5
2014-Jul-18 12:31N 56°27' E 017°27'1312.5
2014-Jul-18 11:27N 56°35' E 017°47'1111.8
2014-Jul-18 10:33N 56°42' E 018°02'1212.1
2014-Jul-18 09:33N 56°49' E 018°19'1212.3
2014-Jul-18 08:33N 56°56' E 018°38'1212.5
2014-Jul-18 07:33N 57°03' E 018°57'1312.4
2014-Jul-18 06:30N 57°10' E 019°17'1512.4
2014-Jul-18 05:18N 57°19' E 019°39'1012.3
2014-Jul-18 04:31N 57°24' E 019°54'1212.4
2014-Jul-18 03:31N 57°31' E 020°13'  
Track history (hours):
 
Tides and Currents Weather Stations Pressure Air Temp Water Temp Dewpoint Dewpoint Depression Visibility Wind Speed Wind Dir Waves Ship Positions

Marchicora

Last reported at 2014-Jul-22 21:33 UTC. Time now 2014-Jul-23 05:52 UTC.
Position N 49°12' W 004°58'.

Length 153 m; draft 10 m.

Type: Cargo ship. MMSI: 304653000.

Date/timePositionNaut miles runAvg speedWind from/ knotsBaromVisibWave heightAir tempDewpointWater temp
2014-Jul-22 21:33N 49°12' W 004°58'1312.9
2014-Jul-22 20:32N 49°19' W 004°40'16013.0
2014-Jul-22 08:09N 50°22' W 000°51'912.8
2014-Jul-22 07:29N 50°24' W 000°38'1112.1
2014-Jul-22 06:33N 50°27' W 000°21'1211.5
2014-Jul-22 05:33N 50°31' W 000°04'1111.2
2014-Jul-22 04:33N 50°34' E 000°13'1111.4
2014-Jul-22 03:33N 50°37' E 000°30'1212.3
2014-Jul-22 02:33N 50°43' E 000°47'1313.4
2014-Jul-22 01:33N 50°51' E 001°04'1313.5
2014-Jul-22 00:33N 50°60' E 001°20'1312.8
2014-Jul-21 23:34N 51°08' E 001°36'1211.6
2014-Jul-21 22:33N 51°17' E 001°48'1111.4
2014-Jul-21 21:34N 51°27' E 001°57'1211.5
2014-Jul-21 20:33N 51°35' E 002°09'311.4
2014-Jul-21 20:18N 51°38' E 002°12'911.7
2014-Jul-21 19:33N 51°44' E 002°21'1412.4
2014-Jul-21 18:27N 51°55' E 002°36'40212.2
2014-Jul-20 09:29N 57°34' E 008°49'1212.7
2014-Jul-20 08:33N 57°40' E 009°08'1212.2
2014-Jul-20 07:33N 57°47' E 009°27'1212.0
2014-Jul-20 06:31N 57°51' E 009°49'1212.4
2014-Jul-20 05:33N 57°51' E 010°11'1312.8
2014-Jul-20 04:33N 57°51' E 010°35'1312.7
2014-Jul-20 03:33N 57°44' E 010°55'1313.0
2014-Jul-20 02:33N 57°35' E 011°13'1211.9
2014-Jul-20 01:33N 57°27' E 011°28'1312.3
2014-Jul-20 00:32N 57°15' E 011°36'1311.7
2014-Jul-19 23:25N 57°02' E 011°44'1212.0
2014-Jul-19 22:25N 56°51' E 011°51'1010.7
2014-Jul-19 21:31N 56°41' E 011°50'1111.7
2014-Jul-19 20:33N 56°31' E 011°41'1211.9
2014-Jul-19 19:33N 56°21' E 011°29'1212.2
2014-Jul-19 18:33N 56°11' E 011°17'1411.9
2014-Jul-19 17:22N 55°59' E 011°03'4611.0
2014-Jul-19 13:10N 55°13' E 011°06'711.6
2014-Jul-19 12:32N 55°07' E 010°59'1312.0
2014-Jul-19 11:30N 54°55' E 010°52'1213.0
2014-Jul-19 10:33N 54°43' E 010°47'1111.4
2014-Jul-19 09:33N 54°36' E 011°02'1312.6
2014-Jul-19 08:33N 54°33' E 011°23'1212.3
2014-Jul-19 07:33N 54°27' E 011°42'1212.1
2014-Jul-19 06:33N 54°26' E 012°02'1110.5
2014-Jul-19 05:33N 54°34' E 012°15'1111.5
2014-Jul-19 04:33N 54°42' E 012°29'1211.7
2014-Jul-19 03:33N 54°48' E 012°46'1212.5
2014-Jul-19 02:33N 54°52' E 013°07'1312.7
2014-Jul-19 01:33N 54°56' E 013°27'1312.8
2014-Jul-19 00:33N 55°01' E 013°48'1212.5
2014-Jul-18 23:33N 55°06' E 014°08'1312.9
2014-Jul-18 22:33N 55°16' E 014°22'1312.7
2014-Jul-18 21:33N 55°26' E 014°36'1212.4
2014-Jul-18 20:33N 55°32' E 014°55'1312.7
2014-Jul-18 19:33N 55°39' E 015°15'1312.7
2014-Jul-18 18:33N 55°45' E 015°34'1312.7
2014-Jul-18 17:33N 55°52' E 015°53'1312.7
2014-Jul-18 16:33N 55°58' E 016°13'1312.6
2014-Jul-18 15:33N 56°05' E 016°32'1612.5
2014-Jul-18 14:17N 56°14' E 016°56'2212.5
2014-Jul-18 12:31N 56°27' E 017°27'1312.5
2014-Jul-18 11:27N 56°35' E 017°47'1111.8
2014-Jul-18 10:33N 56°42' E 018°02'1212.1
2014-Jul-18 09:33N 56°49' E 018°19'1212.3
2014-Jul-18 08:33N 56°56' E 018°38'1212.5
2014-Jul-18 07:33N 57°03' E 018°57'1312.4
2014-Jul-18 06:30N 57°10' E 019°17'1512.4
2014-Jul-18 05:18N 57°19' E 019°39'1012.3
2014-Jul-18 04:31N 57°24' E 019°54'1212.4
2014-Jul-18 03:31N 57°31' E 020°13'  

Dump ship's entire track history